createdAt,value
2023-01-19T00:02:35.333Z,8.88
2023-01-19T00:05:37.345Z,11.48
2023-01-19T00:08:41.530Z,13.93
2023-01-19T00:11:45.881Z,11.80
2023-01-19T00:14:49.684Z,12.40
2023-01-19T00:17:51.701Z,11.27
2023-01-19T00:20:54.006Z,11.93
2023-01-19T00:23:56.522Z,12.13
2023-01-19T00:27:00.900Z,11.55
2023-01-19T00:30:05.214Z,11.75
2023-01-19T00:33:07.025Z,11.75
2023-01-19T00:36:11.037Z,11.48
2023-01-19T00:39:12.846Z,10.93
2023-01-19T00:42:14.921Z,13.23
2023-01-19T00:45:20.029Z,12.45
2023-01-19T00:48:21.966Z,12.25
2023-01-19T00:51:23.742Z,16.40
2023-01-19T00:54:27.614Z,14.27
2023-01-19T00:57:29.718Z,13.75
2023-01-19T01:00:35.422Z,14.88
2023-01-19T01:03:37.430Z,12.65
2023-01-19T01:06:39.365Z,13.95
2023-01-19T01:09:43.840Z,12.35
2023-01-19T01:12:54.810Z,15.25
2023-01-19T01:16:01.531Z,12.27
2023-01-19T01:19:03.697Z,13.45
2023-01-19T01:22:06.039Z,14.07
2023-01-19T01:25:08.527Z,13.95
2023-01-19T01:28:10.451Z,14.02
2023-01-19T01:31:16.142Z,13.57
2023-01-19T01:34:18.514Z,13.07
2023-01-19T01:37:20.838Z,17.10
2023-01-19T01:40:23.103Z,15.00
2023-01-19T01:43:43.223Z,12.98
2023-01-19T01:46:46.419Z,14.65
2023-01-19T01:49:54.225Z,16.70
2023-01-19T01:53:06.639Z,16.85
2023-01-19T01:56:15.396Z,15.48
2023-01-19T01:59:22.641Z,15.75
2023-01-19T02:02:33.256Z,17.60
2023-01-19T02:05:37.442Z,15.98
2023-01-19T02:08:44.001Z,16.05
2023-01-19T02:11:46.325Z,17.42
2023-01-19T02:14:48.518Z,18.92
2023-01-19T02:17:51.975Z,16.70
2023-01-19T02:21:09.150Z,15.82
2023-01-19T02:24:14.592Z,18.42
2023-01-19T02:27:20.092Z,17.92
2023-01-19T02:30:23.421Z,17.00
2023-01-19T02:33:25.897Z,18.17
2023-01-19T02:36:34.935Z,18.85
2023-01-19T02:39:45.260Z,19.75
2023-01-19T02:42:49.680Z,17.58
2023-01-19T02:45:54.307Z,19.23
2023-01-19T02:48:59.769Z,19.63
2023-01-19T02:52:02.662Z,18.30
2023-01-19T02:55:16.657Z,19.38
2023-01-19T02:58:28.532Z,19.05
2023-01-19T03:01:44.207Z,17.67
2023-01-19T03:04:59.594Z,21.10
2023-01-19T03:08:10.664Z,18.70
2023-01-19T03:11:16.806Z,21.17
2023-01-19T03:14:26.526Z,19.88
2023-01-19T03:17:32.117Z,19.50
2023-01-19T03:20:36.413Z,22.52
2023-01-19T03:23:43.630Z,17.73
2023-01-19T03:26:53.940Z,20.10
2023-01-19T03:29:59.743Z,19.40
2023-01-19T03:33:07.292Z,18.88
2023-01-19T03:36:15.132Z,18.90
2023-01-19T03:39:22.548Z,20.35
2023-01-19T03:42:28.001Z,22.70
2023-01-19T03:45:32.892Z,21.23
2023-01-19T03:48:34.802Z,20.10
2023-01-19T03:51:39.161Z,19.35
2023-01-19T03:54:43.472Z,21.15
2023-01-19T03:57:49.100Z,22.90
2023-01-19T04:00:50.983Z,21.08
2023-01-19T04:03:55.624Z,18.95
2023-01-19T04:06:57.666Z,21.80
2023-01-19T04:09:59.892Z,23.05
2023-01-19T04:13:06.250Z,23.33
2023-01-19T04:16:09.662Z,21.40
2023-01-19T04:19:11.551Z,20.63
2023-01-19T04:22:15.692Z,21.02
2023-01-19T04:25:17.699Z,21.38
2023-01-19T04:28:21.099Z,19.55
2023-01-19T04:31:22.890Z,21.10
2023-01-19T04:34:25.035Z,24.17
2023-01-19T04:37:27.123Z,22.65
2023-01-19T04:40:29.116Z,20.73
2023-01-19T04:43:34.013Z,20.88
2023-01-19T04:46:38.519Z,20.92
2023-01-19T04:49:40.813Z,21.42
2023-01-19T04:52:43.055Z,25.13
2023-01-19T04:55:44.952Z,22.02
2023-01-19T04:58:48.339Z,24.42
2023-01-19T05:01:50.373Z,22.45
2023-01-19T05:04:53.761Z,22.40
2023-01-19T05:07:55.843Z,25.67
2023-01-19T05:10:57.847Z,23.08
2023-01-19T05:14:01.540Z,25.65
2023-01-19T05:17:03.714Z,24.42
2023-01-19T05:20:08.642Z,30.42
2023-01-19T05:23:11.018Z,27.88
2023-01-19T05:26:14.169Z,30.27
2023-01-19T05:29:18.633Z,31.30
2023-01-19T05:32:20.463Z,30.73
2023-01-19T05:35:35.253Z,28.30
2023-01-19T05:38:37.903Z,24.60
2023-01-19T05:41:40.769Z,25.52
2023-01-19T05:44:44.218Z,22.85
2023-01-19T05:47:48.285Z,25.05
2023-01-19T05:50:52.630Z,19.73
2023-01-19T05:53:54.445Z,17.90
2023-01-19T05:56:57.080Z,17.95
2023-01-19T06:00:03.822Z,20.15
2023-01-19T06:03:05.633Z,23.83
2023-01-19T06:06:08.119Z,18.75
2023-01-19T06:09:10.261Z,22.33
2023-01-19T06:12:12.289Z,19.77
2023-01-19T06:15:16.236Z,18.95
2023-01-19T06:18:18.337Z,19.08
2023-01-19T06:21:23.582Z,19.80
2023-01-19T06:24:25.459Z,18.83
2023-01-19T06:27:27.655Z,21.95
2023-01-19T06:30:31.285Z,21.13
2023-01-19T06:33:36.161Z,18.98
2023-01-19T06:36:37.954Z,25.90
2023-01-19T06:39:39.981Z,23.75
2023-01-19T06:42:41.896Z,25.17
2023-01-19T06:45:48.021Z,21.63
2023-01-19T06:48:50.059Z,21.00
2023-01-19T06:51:52.221Z,18.33
2023-01-19T06:54:54.147Z,24.02
2023-01-19T06:57:58.754Z,19.48
2023-01-19T07:01:03.919Z,23.70
2023-01-19T07:04:05.819Z,20.95
2023-01-19T07:07:07.616Z,19.13
2023-01-19T07:10:10.964Z,26.65
2023-01-19T07:13:12.758Z,21.48
2023-01-19T07:16:16.378Z,22.05
2023-01-19T07:19:27.309Z,21.00
2023-01-19T07:22:29.199Z,21.58
2023-01-19T07:25:31.041Z,23.50
2023-01-19T07:28:32.920Z,25.67
2023-01-19T07:31:36.540Z,19.55
2023-01-19T07:34:39.736Z,23.98
2023-01-19T07:37:41.814Z,23.98
2023-01-19T07:40:44.007Z,23.27
2023-01-19T07:43:45.979Z,20.95
2023-01-19T07:46:49.511Z,23.70
2023-01-19T07:49:51.474Z,19.98
2023-01-19T07:52:53.813Z,25.23
2023-01-19T07:55:56.671Z,24.17
2023-01-19T07:58:59.117Z,29.95
2023-01-19T08:02:02.630Z,23.42
2023-01-19T08:05:04.996Z,28.13
2023-01-19T08:08:06.834Z,26.60
2023-01-19T08:11:08.834Z,31.58
2023-01-19T08:14:11.082Z,27.48
2023-01-19T08:17:15.244Z,29.92
2023-01-19T08:20:17.830Z,22.58
2023-01-19T08:23:19.803Z,20.90
2023-01-19T08:26:27.422Z,21.08
2023-01-19T08:29:31.195Z,22.73
2023-01-19T08:32:35.014Z,20.75
2023-01-19T08:35:38.613Z,18.45
2023-01-19T08:38:40.660Z,16.98
2023-01-19T08:41:44.815Z,15.85
2023-01-19T08:44:57.588Z,14.45
2023-01-19T08:48:02.098Z,16.67
2023-01-19T08:51:04.408Z,19.10
2023-01-19T08:54:06.939Z,13.75
2023-01-19T08:57:08.740Z,16.70
2023-01-19T09:00:12.036Z,13.18
2023-01-19T09:03:15.322Z,14.10
2023-01-19T09:06:20.221Z,16.90
2023-01-19T09:09:24.615Z,13.63
2023-01-19T09:12:28.548Z,11.50
2023-01-19T09:15:30.943Z,11.35
2023-01-19T09:18:37.691Z,14.52
2023-01-19T09:21:39.567Z,10.93
2023-01-19T09:24:42.773Z,9.95
2023-01-19T09:27:44.750Z,10.65
2023-01-19T09:30:48.707Z,14.93
2023-01-19T09:33:52.296Z,9.10
2023-01-19T09:36:54.279Z,11.52
2023-01-19T09:39:59.844Z,13.38
2023-01-19T09:43:12.788Z,12.82
2023-01-19T09:46:19.941Z,13.07
2023-01-19T09:49:31.421Z,14.13
2023-01-19T09:52:37.766Z,17.85
2023-01-19T09:55:43.725Z,14.38
2023-01-19T09:58:46.084Z,13.65
2023-01-19T10:02:04.038Z,17.60
2023-01-19T10:05:25.427Z,13.80
2023-01-19T10:08:36.172Z,13.77
2023-01-19T10:11:52.707Z,14.40
2023-01-19T10:15:03.427Z,15.50
2023-01-19T10:18:13.494Z,18.77
2023-01-19T10:21:20.511Z,15.30
2023-01-19T10:24:29.284Z,16.83
2023-01-19T10:27:32.592Z,14.10
2023-01-19T10:30:35.368Z,17.65
2023-01-19T10:33:38.790Z,15.38
2023-01-19T10:36:42.196Z,18.75
2023-01-19T10:39:45.450Z,15.95
2023-01-19T10:42:47.459Z,17.75
2023-01-19T10:45:50.620Z,14.93
2023-01-19T10:48:54.335Z,13.95
2023-01-19T10:51:59.369Z,15.30
2023-01-19T10:55:03.225Z,16.05
2023-01-19T10:58:06.355Z,14.32
2023-01-19T11:01:43.151Z,17.73
2023-01-19T11:04:45.455Z,18.70
2023-01-19T11:07:51.518Z,16.30
2023-01-19T11:10:59.044Z,17.25
2023-01-19T11:14:09.692Z,13.25
2023-01-19T11:17:19.899Z,21.05
2023-01-19T11:20:24.338Z,22.83
2023-01-19T11:23:30.303Z,15.73
2023-01-19T11:26:35.304Z,15.05
2023-01-19T11:29:37.441Z,18.33
2023-01-19T11:32:39.547Z,17.50
2023-01-19T11:35:44.849Z,15.80
2023-01-19T11:38:51.313Z,15.95
2023-01-19T11:41:56.208Z,17.05
2023-01-19T11:45:06.350Z,16.52
2023-01-19T11:48:18.662Z,16.48
2023-01-19T11:51:23.048Z,20.60
2023-01-19T11:54:31.766Z,14.10
2023-01-19T11:57:34.168Z,17.85
2023-01-19T12:00:41.595Z,21.75
2023-01-19T12:03:47.812Z,17.13
2023-01-19T12:06:54.523Z,17.02
2023-01-19T12:10:07.319Z,15.27
2023-01-19T12:13:28.666Z,14.38
2023-01-19T12:16:34.488Z,12.43
2023-01-19T12:19:42.860Z,14.32
2023-01-19T12:22:50.812Z,12.60
2023-01-19T12:26:09.629Z,10.32
2023-01-19T12:29:14.013Z,17.60
2023-01-19T12:32:20.115Z,13.70
2023-01-19T12:35:58.586Z,17.85
2023-01-19T12:39:03.795Z,15.30
2023-01-19T12:42:15.450Z,15.45
2023-01-19T12:45:21.014Z,15.88
2023-01-19T12:48:28.249Z,22.55
2023-01-19T12:51:30.670Z,18.35
2023-01-19T12:54:33.009Z,17.70
2023-01-19T12:57:46.237Z,21.80
2023-01-19T13:00:52.008Z,19.05
2023-01-19T13:04:06.011Z,15.93
2023-01-19T13:07:09.973Z,17.38
2023-01-19T13:10:48.911Z,18.60
2023-01-19T13:14:26.968Z,19.95
2023-01-19T13:17:33.196Z,18.33
2023-01-19T13:20:46.648Z,16.40
2023-01-19T13:23:54.742Z,15.52
2023-01-19T13:26:58.308Z,17.30
2023-01-19T13:30:03.550Z,16.75
2023-01-19T13:33:17.815Z,14.82
2023-01-19T13:36:27.554Z,18.08
2023-01-19T13:39:34.664Z,19.50
2023-01-19T13:42:39.033Z,18.48
2023-01-19T13:45:41.841Z,12.18
2023-01-19T13:48:57.682Z,14.70
2023-01-19T13:52:07.739Z,16.73
2023-01-19T13:55:14.418Z,15.40
2023-01-19T13:58:23.369Z,17.98
2023-01-19T14:01:28.898Z,16.73
2023-01-19T14:04:34.070Z,12.45
2023-01-19T14:07:36.098Z,14.50
2023-01-19T14:10:40.477Z,16.58
2023-01-19T14:13:46.486Z,15.10
2023-01-19T14:16:48.340Z,17.02
2023-01-19T14:19:53.606Z,15.07
2023-01-19T14:22:56.424Z,14.63
2023-01-19T14:25:58.268Z,11.10
2023-01-19T14:29:07.966Z,16.25
2023-01-19T14:32:15.740Z,12.63
2023-01-19T14:35:25.769Z,14.43
2023-01-19T14:38:27.626Z,13.70
2023-01-19T14:41:37.847Z,11.55
2023-01-19T14:44:42.948Z,13.48
2023-01-19T14:47:47.458Z,15.38
2023-01-19T14:51:03.180Z,13.13
2023-01-19T14:54:05.877Z,14.60
2023-01-19T14:57:12.680Z,14.18
2023-01-19T15:00:17.578Z,11.80
2023-01-19T15:03:19.511Z,15.70
2023-01-19T15:06:24.822Z,15.02
2023-01-19T15:09:27.140Z,16.83
2023-01-19T15:12:29.329Z,11.02
2023-01-19T15:15:33.680Z,13.38
2023-01-19T15:18:35.882Z,13.32
2023-01-19T15:21:39.333Z,12.60
2023-01-19T15:24:41.121Z,10.82
2023-01-19T15:27:43.748Z,12.43
2023-01-19T15:30:45.801Z,12.15
2023-01-19T15:33:49.500Z,14.10
2023-01-19T15:36:53.726Z,15.90
2023-01-19T15:39:55.581Z,14.05
2023-01-19T15:42:57.367Z,11.15
2023-01-19T15:46:01.357Z,15.95
2023-01-19T15:49:03.307Z,13.80
2023-01-19T15:52:06.654Z,12.10
2023-01-19T15:55:10.911Z,12.40
2023-01-19T15:58:13.818Z,12.48
2023-01-19T16:01:17.510Z,10.18
2023-01-19T16:04:19.552Z,11.93
2023-01-19T16:07:37.846Z,11.73
2023-01-19T16:10:41.224Z,10.00
2023-01-19T16:13:45.300Z,14.32
2023-01-19T16:16:47.268Z,12.13
2023-01-19T16:19:51.576Z,10.43
2023-01-19T16:22:56.561Z,9.93
2023-01-19T16:26:02.211Z,11.60
2023-01-19T16:29:06.047Z,13.32
2023-01-19T16:32:07.868Z,11.30
2023-01-19T16:35:09.934Z,9.90
2023-01-19T16:38:13.357Z,10.98
2023-01-19T16:41:16.804Z,12.15
2023-01-19T16:44:20.106Z,11.55
2023-01-19T16:47:22.288Z,17.10
2023-01-19T16:50:24.318Z,15.27
2023-01-19T16:53:29.762Z,14.18
2023-01-19T16:56:31.842Z,15.18
2023-01-19T16:59:33.906Z,13.30
2023-01-19T17:02:35.903Z,16.55
2023-01-19T17:05:38.406Z,17.25
2023-01-19T17:08:42.048Z,13.77
2023-01-19T17:11:47.737Z,11.75
2023-01-19T17:14:50.652Z,11.70
2023-01-19T17:17:53.939Z,14.15
2023-01-19T17:21:01.654Z,12.15
2023-01-19T17:24:08.451Z,12.35
2023-01-19T17:27:12.256Z,10.80
2023-01-19T17:30:17.113Z,15.43
2023-01-19T17:33:22.476Z,13.82
2023-01-19T17:36:26.531Z,12.75
2023-01-19T17:39:30.467Z,12.77
2023-01-19T17:42:33.224Z,11.45
2023-01-19T17:45:37.186Z,15.27
2023-01-19T17:48:39.838Z,11.57
2023-01-19T17:51:42.432Z,17.90
2023-01-19T17:54:46.565Z,8.82
2023-01-19T17:57:49.550Z,12.43
2023-01-19T18:00:52.818Z,15.35
2023-01-19T18:03:59.228Z,20.17
2023-01-19T18:07:02.579Z,22.50
2023-01-19T18:10:07.770Z,25.30
2023-01-19T18:13:11.906Z,22.83
2023-01-19T18:16:17.061Z,27.35
2023-01-19T18:19:21.050Z,25.73
2023-01-19T18:22:24.111Z,20.98
2023-01-19T18:25:29.378Z,17.58
2023-01-19T18:28:34.122Z,13.80
2023-01-19T18:31:39.944Z,16.40
2023-01-19T18:34:42.814Z,15.48
2023-01-19T18:37:45.854Z,14.52
2023-01-19T18:41:01.096Z,14.88
2023-01-19T18:44:04.414Z,19.10
2023-01-19T18:47:07.514Z,14.82
2023-01-19T18:50:14.237Z,18.42
2023-01-19T18:53:17.686Z,16.63
2023-01-19T18:56:24.425Z,21.65
2023-01-19T18:59:27.864Z,16.67
2023-01-19T19:02:31.292Z,17.88
2023-01-19T19:05:35.898Z,17.20
2023-01-19T19:08:39.072Z,16.58
2023-01-19T19:11:47.532Z,17.10
2023-01-19T19:14:50.996Z,16.67
2023-01-19T19:17:54.904Z,17.10
2023-01-19T19:20:57.248Z,16.17
2023-01-19T19:24:01.918Z,14.60
2023-01-19T19:27:08.095Z,14.23
2023-01-19T19:30:18.209Z,14.30
2023-01-19T19:33:21.989Z,24.25
2023-01-19T19:36:27.163Z,22.80
2023-01-19T19:39:30.201Z,21.40
2023-01-19T19:42:37.167Z,19.50
2023-01-19T19:45:46.186Z,22.30
2023-01-19T19:51:55.631Z,33.33
2023-01-19T19:54:58.837Z,36.80
2023-01-19T19:58:04.791Z,35.90
2023-01-19T20:01:10.036Z,23.40
2023-01-19T20:04:16.716Z,25.17
2023-01-19T20:07:19.592Z,29.40
2023-01-19T20:10:22.625Z,26.90
2023-01-19T20:13:32.076Z,24.65
2023-01-19T20:16:36.340Z,21.85
2023-01-19T20:19:39.930Z,44.17
2023-01-19T20:22:43.394Z,42.03
2023-01-19T20:25:46.786Z,54.03
2023-01-19T20:28:51.792Z,52.10
2023-01-19T20:31:56.573Z,47.58
2023-01-19T20:34:59.279Z,32.63
2023-01-19T20:38:02.681Z,20.33
2023-01-19T20:41:07.022Z,19.30
2023-01-19T20:44:12.571Z,18.05
2023-01-19T20:47:17.420Z,20.27
2023-01-19T20:50:21.878Z,17.15
2023-01-19T20:53:25.741Z,14.00
2023-01-19T20:56:28.731Z,11.85
2023-01-19T20:59:33.325Z,13.55
2023-01-19T21:02:35.810Z,18.08
2023-01-19T21:05:38.073Z,18.25
2023-01-19T21:08:42.197Z,19.38
2023-01-19T21:11:44.881Z,17.30
2023-01-19T21:14:50.900Z,16.60
2023-01-19T21:17:53.856Z,14.57
2023-01-19T21:21:00.393Z,10.85
2023-01-19T21:24:04.022Z,14.38
2023-01-19T21:27:06.017Z,16.67
2023-01-19T21:30:11.112Z,15.23
2023-01-19T21:33:14.095Z,16.85
2023-01-19T21:36:16.353Z,18.33
2023-01-19T21:39:18.729Z,13.43
2023-01-19T21:42:20.732Z,19.52
2023-01-19T21:45:24.129Z,17.58
2023-01-19T21:48:25.957Z,16.40
2023-01-19T21:51:28.147Z,15.23
2023-01-19T21:54:30.025Z,16.65
2023-01-19T21:57:32.068Z,16.42
2023-01-19T22:00:35.464Z,14.70
2023-01-19T22:03:38.527Z,15.20
2023-01-19T22:06:40.556Z,14.95
2023-01-19T22:09:42.581Z,13.55
2023-01-19T22:12:44.388Z,17.05
2023-01-19T22:15:59.307Z,20.70
2023-01-19T22:19:03.138Z,17.83
2023-01-19T22:22:04.920Z,20.83
2023-01-19T22:25:07.350Z,14.07
2023-01-19T22:28:09.184Z,21.42
2023-01-19T22:31:14.677Z,20.58
2023-01-19T22:34:17.436Z,16.50
2023-01-19T22:37:19.213Z,14.82
2023-01-19T22:40:21.023Z,16.42
2023-01-19T22:43:25.230Z,13.52
2023-01-19T22:46:30.458Z,15.90
2023-01-19T22:49:32.353Z,15.40
2023-01-19T22:52:34.420Z,17.35
2023-01-19T22:55:37.174Z,18.70
2023-01-19T22:58:39.445Z,18.92
2023-01-19T23:01:43.939Z,14.23
2023-01-19T23:04:45.845Z,15.45
2023-01-19T23:07:48.106Z,19.10
2023-01-19T23:10:52.480Z,14.57
2023-01-19T23:13:55.461Z,17.50
2023-01-19T23:16:58.663Z,16.40
2023-01-19T23:20:02.992Z,13.27
2023-01-19T23:23:04.865Z,15.27
2023-01-19T23:26:08.627Z,15.10
2023-01-19T23:29:12.796Z,12.95
2023-01-19T23:32:16.245Z,11.82
2023-01-19T23:35:19.474Z,13.93
2023-01-19T23:38:22.570Z,14.68
2023-01-19T23:41:26.405Z,12.70
2023-01-19T23:44:30.987Z,10.10
2023-01-19T23:47:36.306Z,11.15
2023-01-19T23:50:39.711Z,10.90
2023-01-19T23:53:41.713Z,9.60
2023-01-19T23:56:43.930Z,11.05
2023-01-19T23:59:45.722Z,10.73
